createdAt,value
2023-02-27T00:00:32.247Z,99062.09
2023-02-27T00:10:59.567Z,99066.35
2023-02-27T00:21:05.985Z,99069.34
2023-02-27T00:31:13.300Z,99073.09
2023-02-27T00:41:20.238Z,99075.77
2023-02-27T00:51:27.619Z,99073.91
2023-02-27T01:01:35.271Z,99075.99
2023-02-27T01:11:42.371Z,99069.70
2023-02-27T01:21:50.139Z,99068.83
2023-02-27T01:31:57.770Z,99077.77
2023-02-27T01:42:05.635Z,99082.33
2023-02-27T01:52:16.486Z,99094.67
2023-02-27T02:02:30.192Z,99100.64
2023-02-27T02:12:40.290Z,99111.33
2023-02-27T02:23:16.848Z,99121.63
2023-02-27T02:33:47.785Z,99137.86
2023-02-27T02:43:55.824Z,99149.33
2023-02-27T02:54:06.598Z,99152.60
2023-02-27T03:04:19.007Z,99158.13
2023-02-27T03:14:32.222Z,99168.43
2023-02-27T03:24:44.938Z,99179.83
2023-02-27T03:34:52.637Z,99181.52
2023-02-27T03:44:57.957Z,99193.85
2023-02-27T03:55:12.265Z,99200.83
2023-02-27T04:05:20.136Z,99203.81
2023-02-27T04:15:25.788Z,99193.39
2023-02-27T04:25:52.960Z,99198.16
2023-02-27T04:35:58.186Z,99203.64
2023-02-27T04:46:08.045Z,99209.23
2023-02-27T04:56:16.832Z,99220.29
2023-02-27T05:06:28.438Z,99227.72
2023-02-27T05:16:37.764Z,99230.22
2023-02-27T05:26:45.781Z,99235.62
2023-02-27T05:36:54.081Z,99243.28
2023-02-27T05:47:06.912Z,99255.67
2023-02-27T05:57:15.991Z,99265.02
2023-02-27T06:07:23.802Z,99276.31
2023-02-27T06:17:31.204Z,99279.73
2023-02-27T06:27:38.963Z,99286.05
2023-02-27T06:37:46.381Z,99299.23
2023-02-27T06:47:53.606Z,99302.75
2023-02-27T06:58:00.984Z,99308.10
2023-02-27T07:08:07.555Z,99313.61
2023-02-27T07:18:14.802Z,99323.20
2023-02-27T07:28:22.357Z,99334.48
2023-02-27T07:38:29.339Z,99334.23
2023-02-27T07:48:35.971Z,99339.17
2023-02-27T07:58:42.589Z,99342.12
2023-02-27T08:08:49.629Z,99353.38
2023-02-27T08:18:57.117Z,99363.58
2023-02-27T08:29:04.437Z,99375.66
2023-02-27T08:39:12.787Z,99388.18
2023-02-27T08:49:21.548Z,99395.36
2023-02-27T08:59:29.308Z,99404.33
2023-02-27T09:09:36.547Z,99404.23
2023-02-27T09:19:44.048Z,99417.48
2023-02-27T09:29:50.927Z,99427.21
2023-02-27T09:39:58.145Z,99437.20
2023-02-27T09:50:09.149Z,99446.15
2023-02-27T10:00:32.898Z,99452.08
2023-02-27T10:10:39.487Z,99460.54
2023-02-27T10:20:48.979Z,99464.64
2023-02-27T10:30:58.765Z,99453.84
2023-02-27T10:41:05.824Z,99445.41
2023-02-27T10:51:24.418Z,99440.69
2023-02-27T11:01:42.790Z,99433.88
2023-02-27T11:11:50.355Z,99448.69
2023-02-27T11:22:02.494Z,99458.95
2023-02-27T11:32:15.802Z,99464.41
2023-02-27T11:42:28.262Z,99453.59
2023-02-27T11:52:38.901Z,99448.61
2023-02-27T12:02:45.129Z,99451.19
2023-02-27T12:12:57.254Z,99446.77
2023-02-27T12:23:05.309Z,99445.31
2023-02-27T12:33:13.303Z,99449.16
2023-02-27T12:43:22.960Z,99446.68
2023-02-27T12:53:57.654Z,99465.23
2023-02-27T13:04:13.495Z,99475.52
2023-02-27T13:14:21.575Z,99486.80
2023-02-27T13:24:26.361Z,99485.77
2023-02-27T13:34:36.086Z,99486.23
2023-02-27T13:44:41.663Z,99484.46
2023-02-27T13:54:48.871Z,99482.31
2023-02-27T14:05:00.673Z,99485.39
2023-02-27T14:15:29.140Z,99483.33
2023-02-27T14:25:34.774Z,99499.58
2023-02-27T14:35:45.389Z,99510.12
2023-02-27T14:45:54.278Z,99521.17
2023-02-27T14:56:02.573Z,99532.25
2023-02-27T15:06:13.545Z,99544.77
2023-02-27T15:16:30.724Z,99553.02
2023-02-27T15:26:36.073Z,99561.96
2023-02-27T15:36:46.963Z,99572.73
2023-02-27T15:46:55.509Z,99584.57
2023-02-27T15:57:02.427Z,99594.07
2023-02-27T16:07:15.121Z,99608.79
2023-02-27T16:17:26.961Z,99619.11
2023-02-27T16:27:34.451Z,99628.88
2023-02-27T16:37:43.917Z,99637.77
2023-02-27T16:47:49.251Z,99654.73
2023-02-27T16:57:56.973Z,99661.08
2023-02-27T17:08:04.593Z,99670.48
2023-02-27T17:18:12.965Z,99680.55
2023-02-27T17:28:20.144Z,99683.45
2023-02-27T17:38:27.254Z,99687.36
2023-02-27T17:48:33.361Z,99695.91
2023-02-27T17:58:40.341Z,99696.81
2023-02-27T18:08:47.793Z,99704.65
2023-02-27T18:18:55.481Z,99704.09
2023-02-27T18:29:00.873Z,99714.17
2023-02-27T18:39:08.845Z,99717.52
2023-02-27T18:49:15.311Z,99722.20
2023-02-27T19:09:32.932Z,99739.10
2023-02-27T19:19:39.213Z,99747.24
2023-02-27T19:29:46.924Z,99759.84
2023-02-27T19:39:52.933Z,99766.13
2023-02-27T19:50:00.158Z,99768.41
2023-02-27T20:00:05.947Z,99770.48
2023-02-27T20:10:16.002Z,99779.38
2023-02-27T20:20:23.582Z,99787.02
2023-02-27T20:30:30.992Z,99796.85
2023-02-27T20:40:38.062Z,99800.32
2023-02-27T20:50:44.024Z,99805.04
2023-02-27T21:00:51.660Z,99808.88
2023-02-27T21:11:00.626Z,99813.23
2023-02-27T21:21:10.340Z,99811.41
2023-02-27T21:31:15.518Z,99816.39
2023-02-27T21:41:22.862Z,99824.97
2023-02-27T21:51:40.136Z,99834.41
2023-02-27T22:01:49.022Z,99836.84
2023-02-27T22:11:56.581Z,99840.99
2023-02-27T22:22:04.291Z,99840.88
2023-02-27T22:32:11.408Z,99843.29
2023-02-27T22:42:19.193Z,99839.67
2023-02-27T22:52:26.947Z,99843.36
2023-02-27T23:02:33.509Z,99847.33
2023-02-27T23:12:41.650Z,99847.94
2023-02-27T23:22:48.835Z,99852.08
2023-02-27T23:32:56.148Z,99853.10
2023-02-27T23:43:03.364Z,99856.31
2023-02-27T23:53:10.217Z,99862.52
